Time;durP1;ratioP1;P1;durP2;ratioP2;P2;SDS_P1;SDS_P2;PMS_P1;PMS_P2;Temp;Humidity;BMP_temperature;BMP_pressure;BME280_temperature;BME280_humidity;BME280_pressure;Samples;Min_cycle;Max_cycle;Signal;HPM_P1;HPM_P2
2023/11/10 00:04:41;;;;;;;1999.90;999.90;;;;;;;10.94;87.90;99537.44;10379267;28;20046;-62
2023/11/10 00:09:45;;;;;;;1999.90;999.90;;;;;;;10.79;88.85;99529.00;10379656;28;20214;-61
2023/11/10 00:14:47;;;;;;;1999.90;999.90;;;;;;;11.04;87.49;99537.56;10378798;28;20056;-62
2023/11/10 00:19:50;;;;;;;1999.90;999.90;;;;;;;10.94;89.95;99537.44;10378905;28;20058;-62
2023/11/10 00:24:53;;;;;;;1999.90;999.90;;;;;;;11.31;88.11;99531.88;10361160;28;20049;-62
2023/11/10 00:29:56;;;;;;;1999.90;999.90;;;;;;;11.22;86.57;99522.16;10376616;28;20505;-62
2023/11/10 00:34:58;;;;;;;1999.90;999.90;;;;;;;11.41;84.86;99524.13;10378522;28;20046;-62
2023/11/10 00:40:01;;;;;;;1999.90;999.90;;;;;;;11.40;85.60;99509.34;10377912;28;20046;-62
2023/11/10 00:45:04;;;;;;;1999.90;999.90;;;;;;;11.43;87.12;99507.34;10377045;28;20507;-62
2023/11/10 00:50:07;;;;;;;1999.90;999.90;;;;;;;10.76;88.09;99511.78;10377513;28;20088;-62
2023/11/10 00:55:10;;;;;;;1999.90;999.90;;;;;;;11.02;85.68;99501.00;10377058;28;20058;-61
2023/11/10 01:00:13;;;;;;;1999.90;999.90;;;;;;;11.21;88.44;99510.84;10377221;28;20049;-61
2023/11/10 01:05:19;;;;;;;1999.90;999.90;;;;;;;11.57;85.67;99502.75;10376968;28;20049;-61
2023/11/10 01:10:22;;;;;;;1999.90;999.90;;;;;;;11.64;88.51;99506.53;10376827;28;20060;-62
2023/11/10 01:15:24;;;;;;;1999.90;999.90;;;;;;;11.37;88.20;99501.75;10359826;28;20124;-62
2023/11/10 01:20:27;;;;;;;1999.90;999.90;;;;;;;11.38;86.65;99500.78;10359048;28;20134;-62
2023/11/10 01:25:30;;;;;;;1999.90;999.90;;;;;;;12.03;84.97;99491.91;10376277;28;20041;-62
2023/11/10 01:30:32;;;;;;;1999.90;999.90;;;;;;;12.11;84.17;99488.63;10376062;28;20049;-62
2023/11/10 01:35:35;;;;;;;1999.90;999.90;;;;;;;11.85;85.05;99486.41;10375922;28;20046;-62
2023/11/10 01:40:41;;;;;;;1999.90;999.90;;;;;;;11.53;88.73;99491.66;10374827;28;20151;-62
2023/11/10 01:45:44;;;;;;;1999.90;999.90;;;;;;;11.95;85.38;99477.78;10358204;28;20120;-62
2023/11/10 01:50:46;;;;;;;1999.90;999.90;;;;;;;11.60;85.94;99474.50;10374678;28;20453;-62
2023/11/10 01:55:49;;;;;;;1999.90;999.90;;;;;;;11.88;87.25;99469.56;10375346;28;20045;-62
2023/11/10 02:00:52;;;;;;;1999.90;999.90;;;;;;;11.73;84.45;99466.41;10357751;28;20050;-62
2023/11/10 02:05:54;;;;;;;1999.90;999.90;;;;;;;11.56;86.51;99454.72;10357682;28;20080;-62
2023/11/10 02:10:56;;;;;;;1999.90;999.90;;;;;;;11.70;87.21;99454.41;10356909;28;20065;-62
2023/11/10 02:15:59;;;;;;;1999.90;999.90;;;;;;;11.64;84.05;99443.59;10374790;28;20045;-62
2023/11/10 02:21:01;;;;;;;1999.90;999.90;;;;;;;12.17;83.58;99448.78;10374135;28;20421;-62
2023/11/10 02:26:57;;;;;;;1999.90;999.90;;;;;;;11.85;86.54;99439.19;10356027;28;20045;-62
2023/11/10 02:31:59;;;;;;;1999.90;999.90;;;;;;;11.70;86.14;99445.69;10373829;28;20133;-62
2023/11/10 02:37:02;;;;;;;1999.90;999.90;;;;;;;12.29;83.99;99435.53;10373686;28;20060;-62
2023/11/10 02:42:05;;;;;;;1999.90;999.90;;;;;;;11.81;87.01;99447.44;10373742;28;20054;-62
2023/11/10 02:47:07;;;;;;;1999.90;999.90;;;;;;;11.87;84.41;99453.00;10356164;28;20511;-62
2023/11/10 02:52:10;;;;;;;1999.90;999.90;;;;;;;12.03;84.02;99449.09;10374282;28;20065;-62
2023/11/10 02:57:12;;;;;;;1999.90;999.90;;;;;;;11.56;86.10;99441.59;10381196;28;20397;-62
2023/11/10 03:02:14;;;;;;;1999.90;999.90;;;;;;;12.00;82.99;99446.72;10381187;28;20489;-62
2023/11/10 03:07:17;;;;;;;1999.90;999.90;;;;;;;11.73;85.87;99447.25;10381005;28;20052;-62
2023/11/10 03:12:19;;;;;;;1999.90;999.90;;;;;;;11.93;84.39;99446.41;10380921;28;20050;-62
2023/11/10 03:17:21;;;;;;;1999.90;999.90;;;;;;;11.53;85.20;99449.72;10363131;28;20042;-62
2023/11/10 03:22:24;;;;;;;1999.90;999.90;;;;;;;11.83;85.74;99446.31;10380714;28;20056;-62
2023/11/10 03:27:26;;;;;;;1999.90;999.90;;;;;;;11.44;87.22;99447.88;10380352;28;20057;-61
2023/11/10 03:32:31;;;;;;;1999.90;999.90;;;;;;;11.98;84.21;99443.41;10380071;28;20092;-62
2023/11/10 03:37:34;;;;;;;1999.90;999.90;;;;;;;11.98;82.84;99438.16;10379551;28;20100;-62
2023/11/10 03:42:37;;;;;;;1999.90;999.90;;;;;;;11.93;80.60;99441.19;10379496;28;20511;-62
2023/11/10 03:47:39;;;;;;;1999.90;999.90;;;;;;;11.61;81.80;99436.81;10379729;28;20057;-62
2023/11/10 03:52:42;;;;;;;1999.90;999.90;;;;;;;12.08;81.87;99436.41;10377277;28;20108;-62
2023/11/10 03:57:46;;;;;;;1999.90;999.90;;;;;;;11.64;82.43;99444.44;10379166;28;20047;-62
2023/11/10 04:02:49;;;;;;;1999.90;999.90;;;;;;;11.44;81.28;99445.25;10379253;28;20050;-62
2023/11/10 04:07:52;;;;;;;1999.90;999.90;;;;;;;11.63;82.88;99445.41;10392999;22;20050;-63
2023/11/10 04:12:55;;;;;;;1999.90;999.90;;;;;;;11.58;82.46;99441.47;10378553;28;20107;-63
2023/11/10 04:17:59;;;;;;;1999.90;999.90;;;;;;;11.53;83.95;99449.72;10378196;28;20496;-63
2023/11/10 04:23:01;;;;;;;1999.90;999.90;;;;;;;11.91;81.21;99448.34;10361082;28;20077;-63
2023/11/10 04:28:04;;;;;;;1999.90;999.90;;;;;;;11.29;83.50;99449.97;10378002;28;20046;-63
2023/11/10 04:33:06;;;;;;;1999.90;999.90;;;;;;;12.03;80.34;99444.69;10378191;28;20133;-63
2023/11/10 04:38:09;;;;;;;1999.90;999.90;;;;;;;10.98;84.02;99449.84;10377442;28;20556;-63
2023/11/10 04:43:11;;;;;;;1999.90;999.90;;;;;;;11.22;81.34;99439.16;10377220;28;20472;-63
2023/11/10 04:48:14;;;;;;;1999.90;999.90;;;;;;;11.86;78.94;99450.50;10377166;28;20054;-63
2023/11/10 04:53:16;;;;;;;1999.90;999.90;;;;;;;11.78;80.97;99445.88;10376743;28;20061;-63
2023/11/10 04:58:18;;;;;;;1999.90;999.90;;;;;;;11.83;81.23;99454.19;10359495;28;20052;-63
2023/11/10 05:03:21;;;;;;;1999.90;999.90;;;;;;;11.93;80.36;99446.41;10376541;28;20057;-63
2023/11/10 05:08:24;;;;;;;1999.90;999.90;;;;;;;11.38;79.94;99446.59;10376384;28;20054;-63
2023/11/10 05:13:26;;;;;;;1999.90;999.90;;;;;;;12.14;77.58;99454.28;10376306;28;20054;-63
2023/11/10 05:18:28;;;;;;;1999.90;999.90;;;;;;;11.68;81.02;99443.22;10375290;28;20081;-63
2023/11/10 05:23:34;;;;;;;1999.90;999.90;;;;;;;11.61;81.34;99449.91;10376669;28;20057;-62
2023/11/10 05:28:36;;;;;;;1999.90;999.90;;;;;;;11.88;79.72;99456.44;10375471;28;20477;-63
2023/11/10 05:33:39;;;;;;;1999.90;999.90;;;;;;;11.77;78.25;99448.63;10358168;28;20054;-63
2023/11/10 05:38:41;;;;;;;1999.90;999.90;;;;;;;11.66;80.89;99457.41;10375284;28;20057;-63
2023/11/10 05:43:44;;;;;;;1999.90;999.90;;;;;;;11.31;80.65;99467.25;10375568;28;20064;-63
2023/11/10 05:48:46;;;;;;;1999.90;999.90;;;;;;;10.82;81.47;99462.50;10374853;28;20050;-62
2023/11/10 05:53:48;;;;;;;1999.90;999.90;;;;;;;11.21;84.05;99452.38;10375378;28;20054;-63
2023/11/10 05:58:51;;;;;;;1999.90;999.90;;;;;;;10.85;84.03;99455.22;10374792;28;20060;-63
2023/11/10 06:03:56;;;;;;;1999.90;999.90;;;;;;;10.69;84.03;99462.63;10373542;28;20112;-62
2023/11/10 06:08:59;;;;;;;1999.90;999.90;;;;;;;11.36;81.10;99463.41;10374762;28;20050;-63
2023/11/10 06:14:02;;;;;;;1999.90;999.90;;;;;;;10.75;82.92;99477.84;10374257;28;20408;-63
2023/11/10 06:19:04;;;;;;;1999.90;999.90;;;;;;;10.40;84.92;99473.59;10374106;28;20050;-63
2023/11/10 06:24:07;;;;;;;1999.90;999.90;;;;;;;10.65;84.94;99472.50;10373486;28;20050;-63
2023/11/10 06:29:12;;;;;;;1999.90;999.90;;;;;;;11.20;84.08;99479.56;10360937;28;20053;-63
2023/11/10 06:34:14;;;;;;;1999.90;999.90;;;;;;;10.41;83.71;99493.59;10382073;28;20415;-63
2023/11/10 06:39:17;;;;;;;1999.90;999.90;;;;;;;11.02;82.78;99482.69;10382188;28;20129;-63
2023/11/10 06:44:20;;;;;;;1999.90;999.90;;;;;;;10.73;81.90;99496.31;10381959;28;20056;-63
2023/11/10 06:49:22;;;;;;;1999.90;999.90;;;;;;;10.55;85.93;99493.31;10364422;28;20046;-63
2023/11/10 06:54:24;;;;;;;1999.90;999.90;;;;;;;10.63;84.80;99491.91;10381318;28;20049;-63
2023/11/10 06:59:28;;;;;;;1999.90;999.90;;;;;;;10.96;85.29;99499.72;10381481;28;20094;-63
2023/11/10 07:04:30;;;;;;;1999.90;999.90;;;;;;;10.67;84.38;99509.03;10382021;28;20124;-63
2023/11/10 07:09:33;;;;;;;1999.90;999.90;;;;;;;10.94;84.35;99506.03;10381214;28;20057;-63
2023/11/10 07:14:37;;;;;;;1999.90;999.90;;;;;;;10.95;82.54;99494.59;10381192;28;20049;-63
2023/11/10 07:19:39;;;;;;;1999.90;999.90;;;;;;;10.67;85.07;99502.00;10380544;28;20046;-63
2023/11/10 07:24:42;;;;;;;1999.90;999.90;;;;;;;10.65;84.98;99490.84;10363136;28;20588;-63
2023/11/10 07:29:44;;;;;;;1999.90;999.90;;;;;;;10.47;84.12;99492.28;10380209;28;20046;-63
2023/11/10 07:34:46;;;;;;;1999.90;999.90;;;;;;;11.02;83.55;99501.00;10380046;28;20050;-63
2023/11/10 07:39:50;;;;;;;1999.90;999.90;;;;;;;10.67;81.97;99494.16;10379361;28;20060;-63
2023/11/10 07:44:52;;;;;;;1999.90;999.90;;;;;;;11.15;82.35;99498.25;10380077;28;20046;-63
2023/11/10 07:49:55;;;;;;;1999.90;999.90;;;;;;;11.12;82.47;99509.78;10379761;28;20053;-63
2023/11/10 07:54:57;;;;;;;1999.90;999.90;;;;;;;11.48;80.69;99499.94;10379639;28;20046;-63
2023/11/10 08:00:01;;;;;;;1999.90;999.90;;;;;;;11.17;83.22;99508.59;10379140;28;20054;-63
2023/11/10 08:05:04;;;;;;;1999.90;999.90;;;;;;;11.28;82.25;99498.06;10361464;28;20046;-63
2023/11/10 08:10:07;;;;;;;1999.90;999.90;;;;;;;11.07;83.67;99514.56;10378946;28;20064;-63
2023/11/10 08:15:10;;;;;;;1999.90;999.90;;;;;;;11.37;80.69;99513.06;10378402;28;20050;-63
2023/11/10 08:20:13;;;;;;;1999.90;999.90;;;;;;;11.30;82.73;99510.09;10378753;28;20053;-63
2023/11/10 08:25:15;;;;;;;1999.90;999.90;;;;;;;11.48;81.80;99510.41;10378163;28;20046;-63
2023/11/10 08:30:18;;;;;;;1999.90;999.90;;;;;;;11.26;81.53;99510.47;10377729;28;20056;-63
2023/11/10 08:35:21;;;;;;;1999.90;999.90;;;;;;;10.93;83.92;99499.13;10377757;28;20053;-63
2023/11/10 08:40:23;;;;;;;1999.90;999.90;;;;;;;11.55;83.46;99489.78;10377489;28;20053;-63
2023/11/10 08:45:26;;;;;;;1999.90;999.90;;;;;;;11.70;83.31;99492.88;10377157;28;20046;-63
2023/11/10 08:50:28;;;;;;;1999.90;999.90;;;;;;;11.50;81.59;99492.75;10376592;28;20160;-63
2023/11/10 08:55:31;;;;;;;1999.90;999.90;;;;;;;11.40;82.34;99489.22;10359292;28;20479;-63
2023/11/10 09:00:33;;;;;;;1999.90;999.90;;;;;;;11.88;81.33;99501.03;10376602;28;20419;-63
2023/11/10 09:05:35;;;;;;;1999.90;999.90;;;;;;;11.70;80.21;99490.25;10376269;28;20069;-63
2023/11/10 09:10:38;;;;;;;1999.90;999.90;;;;;;;11.63;84.21;99491.75;10376394;28;20045;-63
2023/11/10 09:15:41;;;;;;;1999.90;999.90;;;;;;;11.94;82.50;99497.94;10375986;28;20492;-63
2023/11/10 09:20:44;;;;;;;1999.90;999.90;;;;;;;11.48;81.12;99493.81;10375907;28;20049;-63
2023/11/10 09:25:47;;;;;;;1999.90;999.90;;;;;;;12.06;78.97;99496.88;10375879;28;20070;-63
2023/11/10 09:30:51;;;;;;;1999.90;999.90;;;;;;;12.01;78.67;99493.81;10358630;28;20057;-65
2023/11/10 09:35:53;;;;;;;1999.90;999.90;;;;;;;11.70;80.73;99490.25;10375237;28;20429;-63
2023/11/10 09:40:57;;;;;;;1999.90;999.90;;;;;;;12.11;79.85;99491.25;10375018;28;20396;-66
2023/11/10 09:46:05;;;;;;;1999.90;999.90;;;;;;;12.22;80.35;99485.09;10358279;28;20054;-63
2023/11/10 09:51:08;;;;;;;1999.90;999.90;;;;;;;12.14;80.32;99483.13;10358149;28;20050;-63
2023/11/10 09:56:13;;;;;;;1999.90;999.90;;;;;;;12.36;80.19;99483.94;10357313;28;20052;-63
2023/11/10 10:01:15;;;;;;;1999.90;999.90;;;;;;;12.55;81.32;99480.53;10374393;28;20053;-62
2023/11/10 10:06:18;;;;;;;1999.90;999.90;;;;;;;11.43;86.80;99473.25;10374505;28;20146;-63
2023/11/10 10:11:21;;;;;;;1999.90;999.90;;;;;;;11.72;86.01;99470.03;10357211;28;20129;-63
2023/11/10 10:16:23;;;;;;;1999.90;999.90;;;;;;;11.79;87.38;99473.78;10356704;28;20052;-63
2023/11/10 10:21:26;;;;;;;1999.90;999.90;;;;;;;11.76;87.35;99463.53;10374560;28;20053;-63
2023/11/10 10:26:28;;;;;;;1999.90;999.90;;;;;;;11.85;85.20;99464.56;10374632;28;20448;-63
2023/11/10 10:31:31;;;;;;;1999.90;999.90;;;;;;;11.98;86.63;99467.03;10374196;28;20136;-63
2023/11/10 10:36:38;;;;;;;1999.90;999.90;;;;;;;12.18;84.04;99465.34;10357213;28;20042;-63
2023/11/10 10:41:41;;;;;;;1999.90;999.90;;;;;;;12.37;86.38;99468.06;10374273;28;20128;-63
2023/11/10 10:46:43;;;;;;;1999.90;999.90;;;;;;;12.06;87.25;99468.03;10356609;28;20046;-63
2023/11/10 10:51:46;;;;;;;1999.90;999.90;;;;;;;12.41;87.10;99463.38;10340283;28;20088;-63
2023/11/10 10:56:50;;;;;;;1999.90;999.90;;;;;;;12.41;87.52;99455.50;10374273;28;20056;-63
2023/11/10 11:01:53;;;;;;;1999.90;999.90;;;;;;;12.52;87.28;99458.00;10356042;28;20060;-63
2023/11/10 11:07:19;;;;;;;1999.90;999.90;;;;;;;12.78;85.09;99449.66;10373226;28;20489;-63
2023/11/10 11:12:45;;;;;;;1999.90;999.90;;;;;;;11.90;88.31;99438.78;10356173;28;20088;-63
2023/11/10 11:18:26;;;;;;;1999.90;999.90;;;;;;;11.83;91.91;99456.00;10380495;28;20080;-63
2023/11/10 11:23:33;;;;;;;1999.90;999.90;;;;;;;11.47;90.15;99440.59;10363446;28;20057;-63
2023/11/10 11:28:39;;;;;;;1999.90;999.90;;;;;;;12.14;89.27;99437.69;10363236;28;20085;-63
2023/11/10 11:33:50;;;;;;;1999.90;999.90;;;;;;;11.92;90.92;99442.16;10380040;28;20077;-64
2023/11/10 11:38:53;;;;;;;;;;;;;;;12.22;90.43;99440.47;10363592;28;20060;-63
2023/11/10 11:43:57;;;;;;;1999.90;999.90;;;;;;;11.66;90.24;99439.88;10378541;28;19922;-64
2023/11/10 11:49:01;;;;;;;1999.90;999.90;;;;;;;11.58;91.61;99438.88;10362389;28;20132;-64
2023/11/10 11:54:06;;;;;;;1999.90;999.90;;;;;;;12.03;90.92;99439.44;10379403;28;20108;-65
2023/11/10 11:59:12;;;;;;;1999.90;999.90;;;;;;;12.18;89.34;99432.06;10361749;28;20056;-63
2023/11/10 12:04:15;;;;;;;1999.90;999.90;;;;;;;12.29;88.23;99427.66;10362644;28;20132;-63
2023/11/10 12:09:18;;;;;;;1999.90;999.90;;;;;;;12.35;87.19;99435.84;10379101;28;20065;-64
2023/11/10 12:14:22;;;;;;;1999.90;999.90;;;;;;;12.87;85.70;99432.25;10377602;28;20054;-64
2023/11/10 12:19:25;;;;;;;1999.90;999.90;;;;;;;12.42;85.38;99436.13;10378278;28;20058;-63
2023/11/10 12:24:30;;;;;;;1999.90;999.90;;;;;;;12.67;85.79;99421.69;10378275;28;20050;-63
2023/11/10 12:29:33;;;;;;;1999.90;999.90;;;;;;;12.41;84.39;99421.38;10360869;28;20417;-63
2023/11/10 12:34:36;;;;;;;1999.90;999.90;;;;;;;12.38;84.42;99422.47;10377610;28;20129;-63
2023/11/10 12:39:38;;;;;;;1999.90;999.90;;;;;;;12.64;83.98;99425.44;10360635;28;20068;-63
2023/11/10 12:44:41;;;;;;;1999.90;999.90;;;;;;;12.23;82.63;99423.78;10377754;28;20054;-63
2023/11/10 12:49:46;;;;;;;1999.90;999.90;;;;;;;13.09;80.33;99421.47;10391037;28;20496;-63
2023/11/10 12:54:48;;;;;;;1999.90;999.90;;;;;;;12.52;84.99;99429.13;10416352;28;20045;-63
2023/11/10 12:59:50;;;;;;;1999.90;999.90;;;;;;;12.80;82.16;99426.72;10399684;28;20123;-63
2023/11/10 13:04:53;;;;;;;1999.90;999.90;;;;;;;12.68;79.46;99422.56;10383638;28;20417;-63
2023/11/10 13:09:55;;;;;;;1999.90;999.90;;;;;;;13.37;78.31;99419.03;10376272;28;20132;-63
2023/11/10 13:14:58;;;;;;;1999.90;999.90;;;;;;;12.92;80.71;99430.88;10376760;28;20054;-63
2023/11/10 13:20:00;;;;;;;1999.90;999.90;;;;;;;12.38;80.02;99435.59;10376096;28;20046;-63
2023/11/10 13:25:05;;;;;;;1999.90;999.90;;;;;;;12.15;82.20;99436.72;10374922;28;20057;-63
2023/11/10 13:30:11;;;;;;;1999.90;999.90;;;;;;;12.31;78.72;99437.09;10374610;28;20054;-64
2023/11/10 13:35:15;;;;;;;1999.90;999.90;;;;;;;12.27;79.99;99433.91;10374329;28;20085;-63
2023/11/10 13:40:19;;;;;;;1999.90;999.90;;;;;;;12.61;78.17;99432.75;10375118;28;20128;-64
2023/11/10 13:45:21;;;;;;;1999.90;999.90;;;;;;;12.59;80.06;99429.41;10375197;28;20046;-64
2023/11/10 13:50:24;;;;;;;1999.90;999.90;;;;;;;13.09;79.55;99434.59;10375182;28;20058;-64
2023/11/10 13:55:26;;;;;;;1999.90;999.90;;;;;;;12.85;80.32;99435.00;10374761;28;20079;-64
2023/11/10 14:00:29;;;;;;;1999.90;999.90;;;;;;;12.98;76.80;99437.38;10375082;28;20064;-64
2023/11/10 14:05:32;;;;;;;1999.90;999.90;;;;;;;12.60;79.49;99429.28;10373716;28;20073;-64
2023/11/10 14:10:34;;;;;;;1999.90;999.90;;;;;;;12.53;81.75;99433.41;10373809;28;20129;-64
2023/11/10 14:15:37;;;;;;;1999.90;999.90;;;;;;;12.50;79.88;99438.94;10374705;28;20049;-64
2023/11/10 14:20:40;;;;;;;1999.90;999.90;;;;;;;12.64;79.68;99445.59;10374175;28;20046;-64
2023/11/10 14:25:42;;;;;;;1999.90;999.90;;;;;;;12.81;76.22;99442.34;10356961;28;20050;-64
2023/11/10 14:30:45;;;;;;;1999.90;999.90;;;;;;;12.86;78.39;99456.84;10372904;28;20054;-64
2023/11/10 14:35:51;;;;;;;1999.90;999.90;;;;;;;13.01;75.82;99456.34;10374384;28;20531;-64
2023/11/10 14:40:54;;;;;;;1999.90;999.90;;;;;;;12.69;78.11;99467.03;10374336;28;20058;-64
2023/11/10 14:45:56;;;;;;;1999.90;999.90;;;;;;;13.06;76.43;99468.22;10356279;28;20045;-64
2023/11/10 14:50:59;;;;;;;1999.90;999.90;;;;;;;12.43;79.47;99467.50;10377810;28;20546;-64
2023/11/10 14:56:03;;;;;;;1999.90;999.90;;;;;;;12.47;80.50;99469.88;10381391;28;20137;-64
2023/11/10 15:01:09;;;;;;;1999.90;999.90;;;;;;;13.41;76.72;99472.16;10381520;28;20058;-64
2023/11/10 15:06:11;;;;;;;1999.90;999.90;;;;;;;12.59;79.89;99477.53;10381034;28;20115;-64
2023/11/10 15:11:14;;;;;;;1999.90;999.90;;;;;;;12.61;79.88;99472.16;10380966;28;20054;-64
2023/11/10 15:16:18;;;;;;;1999.90;999.90;;;;;;;13.12;78.41;99475.56;10380792;28;20081;-64
2023/11/10 15:21:20;;;;;;;1999.90;999.90;;;;;;;12.38;79.45;99479.38;10380620;28;20456;-64
2023/11/10 15:26:23;;;;;;;1999.90;999.90;;;;;;;12.41;82.80;99487.00;10380588;28;20056;-64
2023/11/10 15:31:29;;;;;;;1999.90;999.90;;;;;;;12.85;83.01;99491.97;10378958;28;20409;-64
2023/11/10 15:36:33;;;;;;;1999.90;999.90;;;;;;;12.67;82.93;99484.72;10380238;28;20115;-64
2023/11/10 15:41:35;;;;;;;1999.90;999.90;;;;;;;12.85;84.12;99489.34;10379797;28;20556;-64
2023/11/10 15:46:40;;;;;;;1999.90;999.90;;;;;;;12.81;83.61;99497.50;10379840;28;20053;-64
2023/11/10 15:51:44;;;;;;;1999.90;999.90;;;;;;;13.27;79.64;99494.41;10379676;28;20057;-64
2023/11/10 15:56:59;;;;;;;1999.90;999.90;;;;;;;12.52;82.56;99492.13;10379562;28;20050;-67
2023/11/10 16:02:02;;;;;;;1999.90;999.90;;;;;;;12.53;83.82;99496.44;10378785;28;20129;-64
2023/11/10 16:07:05;;;;;;;1999.90;999.90;;;;;;;12.34;84.35;99499.81;10378525;28;20100;-64
2023/11/10 16:12:08;;;;;;;1999.90;999.90;;;;;;;13.17;81.22;99508.34;10378796;28;20081;-64
2023/11/10 16:17:10;;;;;;;1999.90;999.90;;;;;;;13.09;80.69;99520.50;10378399;28;20042;-67
2023/11/10 16:22:13;;;;;;;1999.90;999.90;;;;;;;12.88;82.81;99521.44;10385795;22;20505;-66
2023/11/10 16:27:15;;;;;;;1999.90;999.90;;;;;;;12.38;82.59;99526.63;10360759;28;20136;-65
2023/11/10 16:32:19;;;;;;;1999.90;999.90;;;;;;;12.77;84.13;99529.41;10377904;28;20133;-65
2023/11/10 16:37:22;;;;;;;1999.90;999.90;;;;;;;12.62;82.59;99524.53;10360543;28;20056;-65
2023/11/10 16:42:27;;;;;;;1999.90;999.90;;;;;;;12.67;83.51;99531.16;10377444;28;20145;-66
2023/11/10 16:47:32;;;;;;;1999.90;999.90;;;;;;;12.47;83.41;99532.88;10377535;28;20046;-66
2023/11/10 16:52:34;;;;;;;1999.90;999.90;;;;;;;12.60;83.95;99534.31;10359742;28;20080;-66
2023/11/10 16:57:37;;;;;;;1999.90;999.90;;;;;;;12.30;82.58;99543.00;10376784;28;20396;-66
2023/11/10 17:02:41;;;;;;;1999.90;999.90;;;;;;;12.62;84.91;99537.66;10359397;28;20390;-65
2023/11/10 17:07:52;;;;;;;1999.90;999.90;;;;;;;12.76;83.57;99538.22;10359827;28;20076;-66
2023/11/10 17:12:54;;;;;;;1999.90;999.90;;;;;;;12.63;84.03;99536.69;10358311;28;20201;-65
2023/11/10 17:17:57;;;;;;;1999.90;999.90;;;;;;;12.33;84.39;99544.56;10375863;28;20123;-65
2023/11/10 17:22:59;;;;;;;1999.90;999.90;;;;;;;12.87;82.13;99546.03;10376290;28;20064;-66
2023/11/10 17:28:02;;;;;;;1999.90;999.90;;;;;;;12.94;82.31;99546.31;10375729;28;20081;-66
2023/11/10 17:33:05;;;;;;;1999.90;999.90;;;;;;;12.69;83.95;99542.34;10375882;28;20049;-66
2023/11/10 17:38:09;;;;;;;1999.90;999.90;;;;;;;13.32;79.21;99542.97;10375535;28;20046;-66
2023/11/10 17:43:12;;;;;;;1999.90;999.90;;;;;;;13.09;81.81;99537.09;10375128;28;20054;-65
2023/11/10 17:48:14;;;;;;;1999.90;999.90;;;;;;;12.93;81.61;99537.63;10357825;28;20112;-65
2023/11/10 17:53:17;;;;;;;1999.90;999.90;;;;;;;12.56;83.55;99542.59;10375250;28;20115;-66
2023/11/10 17:58:21;;;;;;;1999.90;999.90;;;;;;;12.62;81.26;99542.06;10374806;28;20054;-66
2023/11/10 18:03:24;;;;;;;1999.90;999.90;;;;;;;12.89;81.22;99536.19;10375352;28;20057;-66
2023/11/10 18:08:26;;;;;;;1999.90;999.90;;;;;;;13.11;79.15;99545.69;10374506;28;20049;-66
2023/11/10 18:13:29;;;;;;;1999.90;999.90;;;;;;;12.91;81.53;99542.19;10374417;28;20446;-66
2023/11/10 18:18:32;;;;;;;1999.90;999.90;;;;;;;13.40;79.12;99538.81;10374387;28;20057;-66
2023/11/10 18:23:35;;;;;;;1999.90;999.90;;;;;;;12.86;81.66;99533.88;10379787;28;20552;-65
2023/11/10 18:28:37;;;;;;;1999.90;999.90;;;;;;;12.96;83.57;99544.38;10387550;28;20077;-65
2023/11/10 18:33:41;;;;;;;1999.90;999.90;;;;;;;12.99;81.83;99544.13;10387452;28;20062;-65
2023/11/10 18:38:44;;;;;;;1999.90;999.90;;;;;;;13.27;79.66;99539.06;10387818;28;20472;-66
2023/11/10 18:43:46;;;;;;;1999.90;999.90;;;;;;;12.88;82.48;99541.59;10387316;28;20053;-66
2023/11/10 18:48:48;;;;;;;1999.90;999.90;;;;;;;11.84;85.84;99547.66;10369910;28;20064;-65
2023/11/10 18:53:51;;;;;;;1999.90;999.90;;;;;;;13.30;80.43;99544.06;10387170;28;20060;-66
2023/11/10 18:58:54;;;;;;;1999.90;999.90;;;;;;;13.12;80.13;99549.13;10387101;28;20481;-66
2023/11/10 19:03:59;;;;;;;1999.90;999.90;;;;;;;12.91;79.10;99551.84;10369435;28;20050;-66
2023/11/10 19:09:03;;;;;;;1999.90;999.90;;;;;;;12.85;80.77;99558.47;10387388;28;20061;-66
2023/11/10 19:14:05;;;;;;;1999.90;999.90;;;;;;;12.80;81.92;99553.59;10369514;28;20056;-66
2023/11/10 19:19:08;;;;;;;1999.90;999.90;;;;;;;13.28;79.30;99556.50;10386472;28;20053;-66
2023/11/10 19:24:10;;;;;;;1999.90;999.90;;;;;;;12.83;83.38;99558.59;10386528;28;20057;-65
2023/11/10 19:29:13;;;;;;;1999.90;999.90;;;;;;;12.73;83.22;99562.97;10386331;28;20068;-65
2023/11/10 19:34:15;;;;;;;1999.90;999.90;;;;;;;12.55;82.50;99572.44;10384379;28;20054;-66
2023/11/10 19:39:18;;;;;;;1999.90;999.90;;;;;;;12.47;86.84;99572.25;10379886;28;20060;-66
2023/11/10 19:44:20;;;;;;;1999.90;999.90;;;;;;;12.74;84.96;99566.44;10379707;28;20053;-66
2023/11/10 19:49:23;;;;;;;1999.90;999.90;;;;;;;12.44;85.03;99576.81;10362544;28;20134;-66
2023/11/10 19:54:25;;;;;;;1999.90;999.90;;;;;;;12.27;86.15;99591.34;10362178;28;20046;-66
2023/11/10 19:59:30;;;;;;;1999.90;999.90;;;;;;;12.07;86.97;99600.06;10362335;28;20053;-66
2023/11/10 20:04:32;;;;;;;1999.90;999.90;;;;;;;12.77;84.61;99598.50;10378843;28;20400;-66
2023/11/10 20:09:35;;;;;;;1999.90;999.90;;;;;;;12.62;85.84;99598.06;10378790;28;20508;-66
2023/11/10 20:14:37;;;;;;;1999.90;999.90;;;;;;;12.66;82.97;99597.75;10378496;28;20515;-66
2023/11/10 20:19:41;;;;;;;1999.90;999.90;;;;;;;13.00;83.29;99606.22;10378640;28;20129;-66
2023/11/10 20:24:44;;;;;;;1999.90;999.90;;;;;;;13.00;83.31;99616.72;10336291;28;20478;-66
2023/11/10 20:29:46;;;;;;;1999.90;999.90;;;;;;;13.22;81.71;99610.44;10336320;28;20046;-66
2023/11/10 20:34:49;;;;;;;1999.90;999.90;;;;;;;12.71;83.61;99617.44;10337482;28;20069;-66
2023/11/10 20:39:51;;;;;;;1999.90;999.90;;;;;;;12.78;83.20;99623.81;10336957;28;20397;-66
2023/11/10 20:44:54;;;;;;;1999.90;999.90;;;;;;;12.91;82.72;99625.38;10336936;28;20054;-66
2023/11/10 20:49:56;;;;;;;1999.90;999.90;;;;;;;13.25;79.99;99633.00;10335773;28;20474;-66
2023/11/10 20:54:58;;;;;;;1999.90;999.90;;;;;;;12.97;82.65;99636.19;10335155;28;20054;-66
2023/11/10 21:00:01;;;;;;;1999.90;999.90;;;;;;;13.23;79.33;99637.53;10335105;28;20050;-66
2023/11/10 21:05:07;;;;;;;1999.90;999.90;;;;;;;12.88;82.50;99626.50;10336001;28;20056;-66
2023/11/10 21:10:13;;;;;;;1999.90;999.90;;;;;;;13.16;80.96;99632.00;10336277;28;20089;-66
2023/11/10 21:15:16;;;;;;;1999.90;999.90;;;;;;;12.72;83.75;99631.38;10335777;28;20077;-66
2023/11/10 21:20:18;;;;;;;1999.90;999.90;;;;;;;12.94;80.14;99631.22;10335751;28;20077;-66
2023/11/10 21:25:24;;;;;;;1999.90;999.90;;;;;;;12.76;82.55;99630.16;10376224;28;20124;-66
2023/11/10 21:30:26;;;;;;;1999.90;999.90;;;;;;;13.17;80.51;99631.03;10375784;28;20080;-67
2023/11/10 21:35:29;;;;;;;1999.90;999.90;;;;;;;12.88;81.96;99655.41;10375558;28;20432;-66
2023/11/10 21:40:31;;;;;;;1999.90;999.90;;;;;;;12.62;82.42;99647.09;10357879;28;20468;-69
2023/11/10 21:45:39;;;;;;;1999.90;999.90;;;;;;;12.45;85.42;99659.81;10375158;28;20119;-66
2023/11/10 21:50:43;;;;;;;1999.90;999.90;;;;;;;12.38;84.86;99652.59;10358368;28;20069;-66
2023/11/10 21:55:46;;;;;;;1999.90;999.90;;;;;;;12.82;82.43;99655.91;10357567;28;20073;-66
2023/11/10 22:00:48;;;;;;;1999.90;999.90;;;;;;;12.72;83.43;99657.66;10357515;28;20056;-66
2023/11/10 22:05:51;;;;;;;1999.90;999.90;;;;;;;12.35;82.60;99661.56;10374714;28;20100;-66
2023/11/10 22:10:54;;;;;;;1999.90;999.90;;;;;;;12.57;83.35;99668.47;10374688;28;20096;-66
2023/11/10 22:15:56;;;;;;;1999.90;999.90;;;;;;;12.13;84.27;99682.66;10374337;28;20547;-66